sensor_id;sensor_type;location;lat;lon;timestamp;P1;durP1;ratioP1;P2;durP2;ratioP2
24650;SDS011;12783;48.824;8.662;2023-08-01T00:02:12;6.43;;;3.28;;
24650;SDS011;12783;48.824;8.662;2023-08-01T00:04:39;9.73;;;3.05;;
24650;SDS011;12783;48.824;8.662;2023-08-01T00:07:06;4.78;;;2.80;;
24650;SDS011;12783;48.824;8.662;2023-08-01T00:09:33;8.25;;;2.80;;
24650;SDS011;12783;48.824;8.662;2023-08-01T00:11:59;7.93;;;2.90;;
24650;SDS011;12783;48.824;8.662;2023-08-01T00:14:26;5.13;;;3.13;;
24650;SDS011;12783;48.824;8.662;2023-08-01T00:16:53;5.25;;;2.97;;
24650;SDS011;12783;48.824;8.662;2023-08-01T00:19:20;6.13;;;3.35;;
24650;SDS011;12783;48.824;8.662;2023-08-01T00:21:47;5.82;;;2.80;;
24650;SDS011;12783;48.824;8.662;2023-08-01T00:24:14;5.00;;;2.72;;
24650;SDS011;12783;48.824;8.662;2023-08-01T00:26:40;6.07;;;3.05;;
24650;SDS011;12783;48.824;8.662;2023-08-01T00:29:08;6.25;;;2.85;;
24650;SDS011;12783;48.824;8.662;2023-08-01T00:31:34;5.82;;;3.22;;
24650;SDS011;12783;48.824;8.662;2023-08-01T00:34:02;6.22;;;3.22;;
24650;SDS011;12783;48.824;8.662;2023-08-01T00:36:29;6.28;;;3.45;;
24650;SDS011;12783;48.824;8.662;2023-08-01T00:38:56;5.75;;;3.08;;
24650;SDS011;12783;48.824;8.662;2023-08-01T00:41:22;5.60;;;2.90;;
24650;SDS011;12783;48.824;8.662;2023-08-01T00:43:49;4.55;;;3.00;;
24650;SDS011;12783;48.824;8.662;2023-08-01T00:46:16;6.10;;;2.97;;
24650;SDS011;12783;48.824;8.662;2023-08-01T00:48:44;6.80;;;2.70;;
24650;SDS011;12783;48.824;8.662;2023-08-01T00:51:11;6.05;;;3.10;;
24650;SDS011;12783;48.824;8.662;2023-08-01T00:53:39;4.97;;;2.90;;
24650;SDS011;12783;48.824;8.662;2023-08-01T00:56:06;8.77;;;3.70;;
24650;SDS011;12783;48.824;8.662;2023-08-01T00:58:33;6.05;;;3.13;;
24650;SDS011;12783;48.824;8.662;2023-08-01T01:01:00;4.10;;;3.03;;
24650;SDS011;12783;48.824;8.662;2023-08-01T01:03:30;7.70;;;3.10;;
24650;SDS011;12783;48.824;8.662;2023-08-01T01:06:01;6.03;;;3.35;;
24650;SDS011;12783;48.824;8.662;2023-08-01T01:08:38;7.40;;;3.38;;
24650;SDS011;12783;48.824;8.662;2023-08-01T01:11:05;6.97;;;2.80;;
24650;SDS011;12783;48.824;8.662;2023-08-01T01:13:31;8.98;;;2.90;;
24650;SDS011;12783;48.824;8.662;2023-08-01T01:15:58;11.25;;;3.40;;
24650;SDS011;12783;48.824;8.662;2023-08-01T01:18:25;7.68;;;3.42;;
24650;SDS011;12783;48.824;8.662;2023-08-01T01:20:52;5.75;;;3.30;;
24650;SDS011;12783;48.824;8.662;2023-08-01T01:23:19;8.65;;;3.00;;
24650;SDS011;12783;48.824;8.662;2023-08-01T01:25:49;6.72;;;2.97;;
24650;SDS011;12783;48.824;8.662;2023-08-01T01:28:17;8.55;;;3.33;;
24650;SDS011;12783;48.824;8.662;2023-08-01T01:30:45;6.53;;;3.17;;
24650;SDS011;12783;48.824;8.662;2023-08-01T01:33:14;8.82;;;3.60;;
24650;SDS011;12783;48.824;8.662;2023-08-01T01:35:42;7.88;;;3.40;;
24650;SDS011;12783;48.824;8.662;2023-08-01T01:38:09;9.85;;;3.40;;
24650;SDS011;12783;48.824;8.662;2023-08-01T01:40:36;5.38;;;3.30;;
24650;SDS011;12783;48.824;8.662;2023-08-01T01:43:02;6.55;;;3.22;;
24650;SDS011;12783;48.824;8.662;2023-08-01T01:45:29;5.85;;;3.30;;
24650;SDS011;12783;48.824;8.662;2023-08-01T01:47:56;9.85;;;3.88;;
24650;SDS011;12783;48.824;8.662;2023-08-01T01:50:23;6.65;;;3.38;;
24650;SDS011;12783;48.824;8.662;2023-08-01T01:52:50;6.28;;;3.55;;
24650;SDS011;12783;48.824;8.662;2023-08-01T01:55:17;7.60;;;3.60;;
24650;SDS011;12783;48.824;8.662;2023-08-01T01:57:44;6.57;;;3.30;;
24650;SDS011;12783;48.824;8.662;2023-08-01T02:00:12;4.93;;;3.40;;
24650;SDS011;12783;48.824;8.662;2023-08-01T02:02:39;5.00;;;3.15;;
24650;SDS011;12783;48.824;8.662;2023-08-01T02:05:06;8.98;;;3.55;;
24650;SDS011;12783;48.824;8.662;2023-08-01T02:07:33;6.88;;;3.30;;
24650;SDS011;12783;48.824;8.662;2023-08-01T02:10:01;6.30;;;3.65;;
24650;SDS011;12783;48.824;8.662;2023-08-01T02:12:28;4.97;;;3.28;;
24650;SDS011;12783;48.824;8.662;2023-08-01T02:14:58;5.10;;;3.25;;
24650;SDS011;12783;48.824;8.662;2023-08-01T02:17:25;5.45;;;3.22;;
24650;SDS011;12783;48.824;8.662;2023-08-01T02:19:52;4.57;;;3.13;;
24650;SDS011;12783;48.824;8.662;2023-08-01T02:22:19;7.00;;;3.40;;
24650;SDS011;12783;48.824;8.662;2023-08-01T02:24:46;6.35;;;3.30;;
24650;SDS011;12783;48.824;8.662;2023-08-01T02:27:13;7.38;;;3.58;;
24650;SDS011;12783;48.824;8.662;2023-08-01T02:29:40;5.60;;;3.25;;
24650;SDS011;12783;48.824;8.662;2023-08-01T02:32:07;8.32;;;3.40;;
24650;SDS011;12783;48.824;8.662;2023-08-01T02:34:34;5.13;;;3.25;;
24650;SDS011;12783;48.824;8.662;2023-08-01T02:37:01;5.07;;;3.30;;
24650;SDS011;12783;48.824;8.662;2023-08-01T02:39:27;7.05;;;3.30;;
24650;SDS011;12783;48.824;8.662;2023-08-01T02:41:54;10.07;;;3.13;;
24650;SDS011;12783;48.824;8.662;2023-08-01T02:44:21;9.50;;;3.35;;
24650;SDS011;12783;48.824;8.662;2023-08-01T02:46:48;6.40;;;3.33;;
24650;SDS011;12783;48.824;8.662;2023-08-01T02:49:15;6.63;;;3.17;;
24650;SDS011;12783;48.824;8.662;2023-08-01T02:51:41;6.88;;;3.40;;
24650;SDS011;12783;48.824;8.662;2023-08-01T02:54:08;7.60;;;3.45;;
24650;SDS011;12783;48.824;8.662;2023-08-01T02:56:35;7.97;;;3.08;;
24650;SDS011;12783;48.824;8.662;2023-08-01T02:59:07;5.88;;;3.40;;
24650;SDS011;12783;48.824;8.662;2023-08-01T03:01:35;7.35;;;3.30;;
24650;SDS011;12783;48.824;8.662;2023-08-01T03:04:03;7.68;;;2.90;;
24650;SDS011;12783;48.824;8.662;2023-08-01T03:06:31;5.68;;;2.88;;
24650;SDS011;12783;48.824;8.662;2023-08-01T03:08:59;6.38;;;3.67;;
24650;SDS011;12783;48.824;8.662;2023-08-01T03:11:26;8.05;;;3.00;;
24650;SDS011;12783;48.824;8.662;2023-08-01T03:13:53;5.53;;;2.83;;
24650;SDS011;12783;48.824;8.662;2023-08-01T03:16:20;5.95;;;3.00;;
24650;SDS011;12783;48.824;8.662;2023-08-01T03:18:47;7.78;;;2.90;;
24650;SDS011;12783;48.824;8.662;2023-08-01T03:21:14;5.25;;;3.00;;
24650;SDS011;12783;48.824;8.662;2023-08-01T03:23:41;8.32;;;2.95;;
24650;SDS011;12783;48.824;8.662;2023-08-01T03:26:08;5.45;;;2.80;;
24650;SDS011;12783;48.824;8.662;2023-08-01T03:28:35;7.25;;;2.90;;
24650;SDS011;12783;48.824;8.662;2023-08-01T03:31:01;6.25;;;2.88;;
24650;SDS011;12783;48.824;8.662;2023-08-01T03:33:28;5.63;;;2.67;;
24650;SDS011;12783;48.824;8.662;2023-08-01T03:35:55;6.10;;;2.78;;
24650;SDS011;12783;48.824;8.662;2023-08-01T03:38:22;11.95;;;2.88;;
24650;SDS011;12783;48.824;8.662;2023-08-01T03:40:49;4.90;;;2.60;;
24650;SDS011;12783;48.824;8.662;2023-08-01T03:43:16;10.45;;;2.67;;
24650;SDS011;12783;48.824;8.662;2023-08-01T03:45:43;4.93;;;2.67;;
24650;SDS011;12783;48.824;8.662;2023-08-01T03:48:10;5.88;;;2.78;;
24650;SDS011;12783;48.824;8.662;2023-08-01T03:50:37;6.45;;;2.90;;
24650;SDS011;12783;48.824;8.662;2023-08-01T03:53:04;5.53;;;2.72;;
24650;SDS011;12783;48.824;8.662;2023-08-01T03:55:31;8.82;;;2.63;;
24650;SDS011;12783;48.824;8.662;2023-08-01T03:57:58;7.57;;;3.15;;
24650;SDS011;12783;48.824;8.662;2023-08-01T04:00:25;8.88;;;2.65;;
24650;SDS011;12783;48.824;8.662;2023-08-01T04:02:58;4.97;;;2.55;;
24650;SDS011;12783;48.824;8.662;2023-08-01T04:05:26;5.78;;;2.70;;
24650;SDS011;12783;48.824;8.662;2023-08-01T04:07:52;8.52;;;2.60;;
24650;SDS011;12783;48.824;8.662;2023-08-01T04:10:23;6.13;;;2.63;;
24650;SDS011;12783;48.824;8.662;2023-08-01T04:12:50;7.85;;;2.50;;
24650;SDS011;12783;48.824;8.662;2023-08-01T04:15:17;4.97;;;2.55;;
24650;SDS011;12783;48.824;8.662;2023-08-01T04:17:44;4.38;;;2.13;;
24650;SDS011;12783;48.824;8.662;2023-08-01T04:20:11;8.32;;;2.72;;
24650;SDS011;12783;48.824;8.662;2023-08-01T04:22:38;7.13;;;2.78;;
24650;SDS011;12783;48.824;8.662;2023-08-01T04:25:05;4.80;;;2.40;;
24650;SDS011;12783;48.824;8.662;2023-08-01T04:27:33;2.90;;;1.95;;
24650;SDS011;12783;48.824;8.662;2023-08-01T04:30:00;3.40;;;1.90;;
24650;SDS011;12783;48.824;8.662;2023-08-01T04:32:27;2.47;;;1.90;;
24650;SDS011;12783;48.824;8.662;2023-08-01T04:34:54;3.63;;;2.00;;
24650;SDS011;12783;48.824;8.662;2023-08-01T04:37:20;4.93;;;1.80;;
24650;SDS011;12783;48.824;8.662;2023-08-01T04:39:49;5.78;;;2.10;;
24650;SDS011;12783;48.824;8.662;2023-08-01T04:42:16;3.47;;;2.20;;
24650;SDS011;12783;48.824;8.662;2023-08-01T04:44:43;3.28;;;2.22;;
24650;SDS011;12783;48.824;8.662;2023-08-01T04:47:10;7.10;;;2.30;;
24650;SDS011;12783;48.824;8.662;2023-08-01T04:49:37;5.85;;;2.33;;
24650;SDS011;12783;48.824;8.662;2023-08-01T04:52:04;5.47;;;2.50;;
24650;SDS011;12783;48.824;8.662;2023-08-01T04:54:33;3.50;;;2.08;;
24650;SDS011;12783;48.824;8.662;2023-08-01T04:57:01;3.90;;;2.13;;
24650;SDS011;12783;48.824;8.662;2023-08-01T04:59:28;8.05;;;2.22;;
24650;SDS011;12783;48.824;8.662;2023-08-01T05:01:55;3.35;;;2.22;;
24650;SDS011;12783;48.824;8.662;2023-08-01T05:04:21;4.32;;;2.17;;
24650;SDS011;12783;48.824;8.662;2023-08-01T05:06:49;5.13;;;2.70;;
24650;SDS011;12783;48.824;8.662;2023-08-01T05:09:15;3.63;;;2.60;;
24650;SDS011;12783;48.824;8.662;2023-08-01T05:11:42;5.68;;;2.67;;
24650;SDS011;12783;48.824;8.662;2023-08-01T05:14:09;3.45;;;2.50;;
24650;SDS011;12783;48.824;8.662;2023-08-01T05:16:36;6.72;;;3.03;;
24650;SDS011;12783;48.824;8.662;2023-08-01T05:19:04;6.65;;;3.53;;
24650;SDS011;12783;48.824;8.662;2023-08-01T05:21:31;5.00;;;3.03;;
24650;SDS011;12783;48.824;8.662;2023-08-01T05:23:58;5.32;;;3.03;;
24650;SDS011;12783;48.824;8.662;2023-08-01T05:26:24;5.95;;;3.22;;
24650;SDS011;12783;48.824;8.662;2023-08-01T05:28:51;7.45;;;3.78;;
24650;SDS011;12783;48.824;8.662;2023-08-01T05:31:18;7.63;;;3.45;;
24650;SDS011;12783;48.824;8.662;2023-08-01T05:33:45;4.95;;;2.95;;
24650;SDS011;12783;48.824;8.662;2023-08-01T05:36:12;6.80;;;3.58;;
24650;SDS011;12783;48.824;8.662;2023-08-01T05:38:39;5.88;;;3.20;;
24650;SDS011;12783;48.824;8.662;2023-08-01T05:41:06;6.80;;;3.20;;
24650;SDS011;12783;48.824;8.662;2023-08-01T05:43:33;4.10;;;3.00;;
24650;SDS011;12783;48.824;8.662;2023-08-01T05:46:00;6.60;;;3.10;;
24650;SDS011;12783;48.824;8.662;2023-08-01T05:48:27;5.32;;;3.20;;
24650;SDS011;12783;48.824;8.662;2023-08-01T05:50:53;7.35;;;3.35;;
24650;SDS011;12783;48.824;8.662;2023-08-01T05:53:21;4.75;;;2.97;;
24650;SDS011;12783;48.824;8.662;2023-08-01T05:55:48;6.50;;;3.63;;
24650;SDS011;12783;48.824;8.662;2023-08-01T05:58:16;4.50;;;3.00;;
24650;SDS011;12783;48.824;8.662;2023-08-01T06:00:42;4.10;;;2.90;;
24650;SDS011;12783;48.824;8.662;2023-08-01T06:03:09;6.00;;;3.08;;
24650;SDS011;12783;48.824;8.662;2023-08-01T06:05:36;6.50;;;2.80;;
24650;SDS011;12783;48.824;8.662;2023-08-01T06:08:06;6.07;;;3.10;;
24650;SDS011;12783;48.824;8.662;2023-08-01T06:10:34;8.20;;;2.90;;
24650;SDS011;12783;48.824;8.662;2023-08-01T06:13:02;4.28;;;3.03;;
24650;SDS011;12783;48.824;8.662;2023-08-01T06:15:29;4.68;;;3.03;;
24650;SDS011;12783;48.824;8.662;2023-08-01T06:17:56;4.00;;;2.95;;
24650;SDS011;12783;48.824;8.662;2023-08-01T06:20:22;6.28;;;2.97;;
24650;SDS011;12783;48.824;8.662;2023-08-01T06:22:49;4.90;;;3.20;;
24650;SDS011;12783;48.824;8.662;2023-08-01T06:25:16;6.13;;;3.10;;
24650;SDS011;12783;48.824;8.662;2023-08-01T06:27:43;4.88;;;3.05;;
24650;SDS011;12783;48.824;8.662;2023-08-01T06:30:11;7.45;;;3.00;;
24650;SDS011;12783;48.824;8.662;2023-08-01T06:32:38;7.78;;;3.47;;
24650;SDS011;12783;48.824;8.662;2023-08-01T06:35:05;8.43;;;3.35;;
24650;SDS011;12783;48.824;8.662;2023-08-01T06:37:32;6.38;;;3.30;;
24650;SDS011;12783;48.824;8.662;2023-08-01T06:40:00;5.75;;;3.28;;
24650;SDS011;12783;48.824;8.662;2023-08-01T06:42:28;5.07;;;2.83;;
24650;SDS011;12783;48.824;8.662;2023-08-01T06:44:55;7.68;;;3.55;;
24650;SDS011;12783;48.824;8.662;2023-08-01T06:47:22;5.18;;;3.08;;
24650;SDS011;12783;48.824;8.662;2023-08-01T06:49:49;6.30;;;3.22;;
24650;SDS011;12783;48.824;8.662;2023-08-01T06:52:16;3.97;;;3.10;;
24650;SDS011;12783;48.824;8.662;2023-08-01T06:54:43;3.63;;;2.72;;
24650;SDS011;12783;48.824;8.662;2023-08-01T06:57:10;6.25;;;2.88;;
24650;SDS011;12783;48.824;8.662;2023-08-01T06:59:37;7.03;;;2.83;;
24650;SDS011;12783;48.824;8.662;2023-08-01T07:02:04;5.03;;;3.17;;
24650;SDS011;12783;48.824;8.662;2023-08-01T07:04:32;6.47;;;2.70;;
24650;SDS011;12783;48.824;8.662;2023-08-01T07:07:00;15.20;;;3.20;;
24650;SDS011;12783;48.824;8.662;2023-08-01T07:09:27;14.30;;;3.05;;
24650;SDS011;12783;48.824;8.662;2023-08-01T07:11:54;3.80;;;2.50;;
24650;SDS011;12783;48.824;8.662;2023-08-01T07:14:21;4.32;;;2.45;;
24650;SDS011;12783;48.824;8.662;2023-08-01T07:16:48;8.05;;;2.53;;
24650;SDS011;12783;48.824;8.662;2023-08-01T07:19:15;5.35;;;2.60;;
24650;SDS011;12783;48.824;8.662;2023-08-01T07:21:42;4.82;;;2.75;;
24650;SDS011;12783;48.824;8.662;2023-08-01T07:24:11;3.03;;;2.17;;
24650;SDS011;12783;48.824;8.662;2023-08-01T07:26:40;5.97;;;1.92;;
24650;SDS011;12783;48.824;8.662;2023-08-01T07:29:07;3.35;;;2.00;;
24650;SDS011;12783;48.824;8.662;2023-08-01T07:31:37;3.10;;;1.85;;
24650;SDS011;12783;48.824;8.662;2023-08-01T07:34:04;3.13;;;2.00;;
24650;SDS011;12783;48.824;8.662;2023-08-01T07:36:31;3.53;;;1.90;;
24650;SDS011;12783;48.824;8.662;2023-08-01T07:38:58;3.67;;;2.28;;
24650;SDS011;12783;48.824;8.662;2023-08-01T07:41:25;3.50;;;2.00;;
24650;SDS011;12783;48.824;8.662;2023-08-01T07:43:52;2.28;;;1.90;;
24650;SDS011;12783;48.824;8.662;2023-08-01T07:46:19;4.45;;;1.90;;
24650;SDS011;12783;48.824;8.662;2023-08-01T07:48:46;3.10;;;1.60;;
24650;SDS011;12783;48.824;8.662;2023-08-01T07:51:13;2.88;;;1.45;;
24650;SDS011;12783;48.824;8.662;2023-08-01T07:53:39;4.32;;;1.17;;
24650;SDS011;12783;48.824;8.662;2023-08-01T07:56:08;3.78;;;1.30;;
24650;SDS011;12783;48.824;8.662;2023-08-01T07:58:35;2.13;;;1.30;;
24650;SDS011;12783;48.824;8.662;2023-08-01T08:01:03;1.42;;;1.05;;
24650;SDS011;12783;48.824;8.662;2023-08-01T08:03:31;2.00;;;1.10;;
24650;SDS011;12783;48.824;8.662;2023-08-01T08:05:58;1.08;;;0.90;;
24650;SDS011;12783;48.824;8.662;2023-08-01T08:08:25;2.92;;;0.88;;
24650;SDS011;12783;48.824;8.662;2023-08-01T08:10:53;1.38;;;0.90;;
24650;SDS011;12783;48.824;8.662;2023-08-01T08:13:20;2.20;;;0.80;;
24650;SDS011;12783;48.824;8.662;2023-08-01T08:15:46;3.75;;;0.80;;
24650;SDS011;12783;48.824;8.662;2023-08-01T08:18:14;0.70;;;0.70;;
24650;SDS011;12783;48.824;8.662;2023-08-01T08:20:44;0.98;;;0.40;;
24650;SDS011;12783;48.824;8.662;2023-08-01T08:23:12;1.20;;;0.50;;
24650;SDS011;12783;48.824;8.662;2023-08-01T08:25:42;0.22;;;0.22;;
24650;SDS011;12783;48.824;8.662;2023-08-01T08:28:27;0.40;;;0.40;;
24650;SDS011;12783;48.824;8.662;2023-08-01T08:30:59;0.30;;;0.30;;
24650;SDS011;12783;48.824;8.662;2023-08-01T08:33:30;0.30;;;0.30;;
24650;SDS011;12783;48.824;8.662;2023-08-01T08:35:57;0.57;;;0.38;;
24650;SDS011;12783;48.824;8.662;2023-08-01T08:38:24;2.85;;;0.30;;
24650;SDS011;12783;48.824;8.662;2023-08-01T08:41:25;5.18;;;0.30;;
24650;SDS011;12783;48.824;8.662;2023-08-01T08:43:51;0.40;;;0.20;;
24650;SDS011;12783;48.824;8.662;2023-08-01T08:46:24;0.10;;;0.10;;
24650;SDS011;12783;48.824;8.662;2023-08-01T08:48:56;5.60;;;0.30;;
24650;SDS011;12783;48.824;8.662;2023-08-01T08:51:26;0.20;;;0.20;;
24650;SDS011;12783;48.824;8.662;2023-08-01T08:53:56;0.25;;;0.20;;
24650;SDS011;12783;48.824;8.662;2023-08-01T08:56:26;0.30;;;0.20;;
24650;SDS011;12783;48.824;8.662;2023-08-01T08:58:56;0.65;;;0.25;;
24650;SDS011;12783;48.824;8.662;2023-08-01T09:01:23;1.10;;;0.90;;
24650;SDS011;12783;48.824;8.662;2023-08-01T09:03:50;0.68;;;0.63;;
24650;SDS011;12783;48.824;8.662;2023-08-01T09:06:19;1.33;;;0.22;;
24650;SDS011;12783;48.824;8.662;2023-08-01T09:08:51;0.20;;;0.20;;
24650;SDS011;12783;48.824;8.662;2023-08-01T09:11:44;0.80;;;0.20;;
24650;SDS011;12783;48.824;8.662;2023-08-01T09:14:12;0.10;;;0.10;;
24650;SDS011;12783;48.824;8.662;2023-08-01T09:16:40;0.10;;;0.10;;
24650;SDS011;12783;48.824;8.662;2023-08-01T09:19:09;0.10;;;0.10;;
24650;SDS011;12783;48.824;8.662;2023-08-01T09:21:39;0.22;;;0.08;;
24650;SDS011;12783;48.824;8.662;2023-08-01T09:24:10;0.10;;;0.10;;
24650;SDS011;12783;48.824;8.662;2023-08-01T09:26:48;0.32;;;0.15;;
24650;SDS011;12783;48.824;8.662;2023-08-01T09:29:16;0.57;;;0.35;;
24650;SDS011;12783;48.824;8.662;2023-08-01T09:31:44;0.20;;;0.20;;
24650;SDS011;12783;48.824;8.662;2023-08-01T09:34:21;0.47;;;0.28;;
24650;SDS011;12783;48.824;8.662;2023-08-01T09:36:59;0.50;;;0.50;;
24650;SDS011;12783;48.824;8.662;2023-08-01T09:39:26;0.47;;;0.30;;
24650;SDS011;12783;48.824;8.662;2023-08-01T09:41:55;0.50;;;0.50;;
24650;SDS011;12783;48.824;8.662;2023-08-01T09:44:27;0.28;;;0.20;;
24650;SDS011;12783;48.824;8.662;2023-08-01T09:46:56;0.57;;;0.40;;
24650;SDS011;12783;48.824;8.662;2023-08-01T09:49:30;0.77;;;0.60;;
24650;SDS011;12783;48.824;8.662;2023-08-01T09:51:58;1.10;;;0.50;;
24650;SDS011;12783;48.824;8.662;2023-08-01T09:54:25;1.65;;;0.50;;
24650;SDS011;12783;48.824;8.662;2023-08-01T09:56:53;0.52;;;0.35;;
24650;SDS011;12783;48.824;8.662;2023-08-01T09:59:23;0.40;;;0.40;;
24650;SDS011;12783;48.824;8.662;2023-08-01T10:01:52;3.10;;;0.50;;
24650;SDS011;12783;48.824;8.662;2023-08-01T10:04:29;1.10;;;0.60;;
24650;SDS011;12783;48.824;8.662;2023-08-01T10:06:58;0.75;;;0.65;;
24650;SDS011;12783;48.824;8.662;2023-08-01T10:09:40;0.77;;;0.60;;
24650;SDS011;12783;48.824;8.662;2023-08-01T10:12:07;0.68;;;0.60;;
24650;SDS011;12783;48.824;8.662;2023-08-01T10:14:39;1.60;;;0.65;;
24650;SDS011;12783;48.824;8.662;2023-08-01T10:17:07;1.08;;;0.80;;
24650;SDS011;12783;48.824;8.662;2023-08-01T10:19:36;2.72;;;0.75;;
24650;SDS011;12783;48.824;8.662;2023-08-01T10:22:04;1.17;;;0.70;;
24650;SDS011;12783;48.824;8.662;2023-08-01T10:24:33;1.45;;;0.90;;
24650;SDS011;12783;48.824;8.662;2023-08-01T10:27:11;1.42;;;1.08;;
24650;SDS011;12783;48.824;8.662;2023-08-01T10:29:58;1.27;;;0.70;;
24650;SDS011;12783;48.824;8.662;2023-08-01T10:32:31;4.40;;;1.10;;
24650;SDS011;12783;48.824;8.662;2023-08-01T10:34:59;2.67;;;0.77;;
24650;SDS011;12783;48.824;8.662;2023-08-01T10:37:26;1.80;;;0.90;;
24650;SDS011;12783;48.824;8.662;2023-08-01T10:40:04;2.17;;;0.90;;
24650;SDS011;12783;48.824;8.662;2023-08-01T10:42:42;1.52;;;1.05;;
24650;SDS011;12783;48.824;8.662;2023-08-01T10:45:21;1.40;;;0.85;;
24650;SDS011;12783;48.824;8.662;2023-08-01T10:47:50;1.90;;;1.17;;
24650;SDS011;12783;48.824;8.662;2023-08-01T10:50:17;1.88;;;0.88;;
24650;SDS011;12783;48.824;8.662;2023-08-01T10:52:45;1.05;;;0.90;;
24650;SDS011;12783;48.824;8.662;2023-08-01T10:55:12;1.73;;;1.08;;
24650;SDS011;12783;48.824;8.662;2023-08-01T10:57:48;2.67;;;0.90;;
24650;SDS011;12783;48.824;8.662;2023-08-01T11:00:16;1.83;;;0.90;;
24650;SDS011;12783;48.824;8.662;2023-08-01T11:02:50;1.27;;;0.90;;
24650;SDS011;12783;48.824;8.662;2023-08-01T11:05:20;2.90;;;1.00;;
24650;SDS011;12783;48.824;8.662;2023-08-01T11:07:53;1.58;;;0.90;;
24650;SDS011;12783;48.824;8.662;2023-08-01T11:10:29;1.25;;;1.00;;
24650;SDS011;12783;48.824;8.662;2023-08-01T11:12:58;1.75;;;0.88;;
24650;SDS011;12783;48.824;8.662;2023-08-01T11:15:26;3.95;;;1.10;;
24650;SDS011;12783;48.824;8.662;2023-08-01T11:17:53;5.05;;;1.33;;
24650;SDS011;12783;48.824;8.662;2023-08-01T11:20:23;1.73;;;1.00;;
24650;SDS011;12783;48.824;8.662;2023-08-01T11:22:55;1.48;;;1.10;;
24650;SDS011;12783;48.824;8.662;2023-08-01T11:25:37;6.88;;;1.50;;
24650;SDS011;12783;48.824;8.662;2023-08-01T11:28:10;2.72;;;1.20;;
24650;SDS011;12783;48.824;8.662;2023-08-01T11:30:40;3.17;;;1.30;;
24650;SDS011;12783;48.824;8.662;2023-08-01T11:33:20;3.97;;;1.25;;
24650;SDS011;12783;48.824;8.662;2023-08-01T11:35:53;2.78;;;1.10;;
24650;SDS011;12783;48.824;8.662;2023-08-01T11:38:26;5.85;;;1.30;;
24650;SDS011;12783;48.824;8.662;2023-08-01T11:40:57;4.25;;;1.20;;
24650;SDS011;12783;48.824;8.662;2023-08-01T11:43:25;2.35;;;1.20;;
24650;SDS011;12783;48.824;8.662;2023-08-01T11:45:53;2.53;;;1.05;;
24650;SDS011;12783;48.824;8.662;2023-08-01T11:48:22;2.90;;;1.17;;
24650;SDS011;12783;48.824;8.662;2023-08-01T11:50:56;3.50;;;1.13;;
24650;SDS011;12783;48.824;8.662;2023-08-01T11:53:24;2.38;;;1.10;;
24650;SDS011;12783;48.824;8.662;2023-08-01T11:55:51;1.92;;;1.00;;
24650;SDS011;12783;48.824;8.662;2023-08-01T12:03:50;1.60;;;1.17;;
24650;SDS011;12783;48.824;8.662;2023-08-01T12:06:22;1.63;;;1.00;;
24650;SDS011;12783;48.824;8.662;2023-08-01T12:08:50;4.57;;;1.20;;
24650;SDS011;12783;48.824;8.662;2023-08-01T12:11:19;5.10;;;1.40;;
24650;SDS011;12783;48.824;8.662;2023-08-01T12:14:02;3.10;;;1.38;;
24650;SDS011;12783;48.824;8.662;2023-08-01T12:16:30;3.38;;;1.33;;
24650;SDS011;12783;48.824;8.662;2023-08-01T12:18:57;2.05;;;1.17;;
24650;SDS011;12783;48.824;8.662;2023-08-01T12:21:27;1.75;;;1.55;;
24650;SDS011;12783;48.824;8.662;2023-08-01T12:23:58;2.28;;;1.38;;
24650;SDS011;12783;48.824;8.662;2023-08-01T12:26:25;3.65;;;1.17;;
24650;SDS011;12783;48.824;8.662;2023-08-01T12:28:52;5.35;;;1.13;;
24650;SDS011;12783;48.824;8.662;2023-08-01T12:31:20;2.72;;;1.30;;
24650;SDS011;12783;48.824;8.662;2023-08-01T12:33:49;3.88;;;1.38;;
24650;SDS011;12783;48.824;8.662;2023-08-01T12:36:16;2.90;;;1.27;;
24650;SDS011;12783;48.824;8.662;2023-08-01T12:38:43;1.63;;;1.20;;
24650;SDS011;12783;48.824;8.662;2023-08-01T12:41:10;3.33;;;1.23;;
24650;SDS011;12783;48.824;8.662;2023-08-01T12:43:37;2.22;;;1.40;;
24650;SDS011;12783;48.824;8.662;2023-08-01T12:46:04;3.42;;;1.40;;
24650;SDS011;12783;48.824;8.662;2023-08-01T12:48:31;2.17;;;1.33;;
24650;SDS011;12783;48.824;8.662;2023-08-01T12:50:58;2.38;;;1.23;;
24650;SDS011;12783;48.824;8.662;2023-08-01T12:53:24;3.28;;;1.25;;
24650;SDS011;12783;48.824;8.662;2023-08-01T12:55:51;2.20;;;1.48;;
24650;SDS011;12783;48.824;8.662;2023-08-01T12:58:18;1.88;;;1.40;;
24650;SDS011;12783;48.824;8.662;2023-08-01T13:00:45;4.18;;;1.20;;
24650;SDS011;12783;48.824;8.662;2023-08-01T13:03:13;2.00;;;1.30;;
24650;SDS011;12783;48.824;8.662;2023-08-01T13:05:40;2.80;;;1.20;;
24650;SDS011;12783;48.824;8.662;2023-08-01T13:08:08;2.30;;;1.20;;
24650;SDS011;12783;48.824;8.662;2023-08-01T13:10:36;3.50;;;1.45;;
24650;SDS011;12783;48.824;8.662;2023-08-01T13:13:04;3.08;;;1.30;;
24650;SDS011;12783;48.824;8.662;2023-08-01T13:15:32;3.85;;;1.50;;
24650;SDS011;12783;48.824;8.662;2023-08-01T13:17:59;2.80;;;1.58;;
24650;SDS011;12783;48.824;8.662;2023-08-01T13:20:26;2.10;;;1.40;;
24650;SDS011;12783;48.824;8.662;2023-08-01T13:22:56;2.42;;;1.35;;
24650;SDS011;12783;48.824;8.662;2023-08-01T13:25:23;3.08;;;1.40;;
24650;SDS011;12783;48.824;8.662;2023-08-01T13:27:50;3.90;;;1.20;;
24650;SDS011;12783;48.824;8.662;2023-08-01T13:30:17;2.67;;;1.17;;
24650;SDS011;12783;48.824;8.662;2023-08-01T13:32:45;3.95;;;1.23;;
24650;SDS011;12783;48.824;8.662;2023-08-01T13:35:13;3.53;;;1.40;;
24650;SDS011;12783;48.824;8.662;2023-08-01T13:37:40;1.45;;;1.27;;
24650;SDS011;12783;48.824;8.662;2023-08-01T13:40:07;2.25;;;1.40;;
24650;SDS011;12783;48.824;8.662;2023-08-01T13:42:37;4.05;;;1.08;;
24650;SDS011;12783;48.824;8.662;2023-08-01T13:45:06;4.53;;;1.30;;
24650;SDS011;12783;48.824;8.662;2023-08-01T13:47:34;4.75;;;1.13;;
24650;SDS011;12783;48.824;8.662;2023-08-01T13:50:01;2.92;;;1.10;;
24650;SDS011;12783;48.824;8.662;2023-08-01T13:52:28;3.17;;;1.33;;
24650;SDS011;12783;48.824;8.662;2023-08-01T13:54:55;2.25;;;1.17;;
24650;SDS011;12783;48.824;8.662;2023-08-01T13:57:22;2.38;;;1.45;;
24650;SDS011;12783;48.824;8.662;2023-08-01T13:59:50;5.00;;;1.27;;
24650;SDS011;12783;48.824;8.662;2023-08-01T14:02:31;2.03;;;1.00;;
24650;SDS011;12783;48.824;8.662;2023-08-01T14:04:58;6.43;;;1.95;;
24650;SDS011;12783;48.824;8.662;2023-08-01T14:07:25;4.10;;;1.35;;
24650;SDS011;12783;48.824;8.662;2023-08-01T14:09:52;1.50;;;1.13;;
24650;SDS011;12783;48.824;8.662;2023-08-01T14:12:19;2.47;;;0.88;;
24650;SDS011;12783;48.824;8.662;2023-08-01T14:14:46;2.90;;;1.20;;
24650;SDS011;12783;48.824;8.662;2023-08-01T14:17:13;3.60;;;1.17;;
24650;SDS011;12783;48.824;8.662;2023-08-01T14:19:40;2.03;;;1.10;;
24650;SDS011;12783;48.824;8.662;2023-08-01T14:22:06;3.05;;;1.30;;
24650;SDS011;12783;48.824;8.662;2023-08-01T14:24:33;2.00;;;1.40;;
24650;SDS011;12783;48.824;8.662;2023-08-01T14:27:00;2.17;;;1.25;;
24650;SDS011;12783;48.824;8.662;2023-08-01T14:29:27;4.30;;;1.00;;
24650;SDS011;12783;48.824;8.662;2023-08-01T14:31:54;3.30;;;1.02;;
24650;SDS011;12783;48.824;8.662;2023-08-01T14:34:20;2.75;;;1.17;;
24650;SDS011;12783;48.824;8.662;2023-08-01T14:36:47;4.75;;;1.13;;
24650;SDS011;12783;48.824;8.662;2023-08-01T14:39:14;4.18;;;1.30;;
24650;SDS011;12783;48.824;8.662;2023-08-01T14:41:48;3.03;;;1.20;;
24650;SDS011;12783;48.824;8.662;2023-08-01T14:44:19;4.82;;;1.40;;
24650;SDS011;12783;48.824;8.662;2023-08-01T14:46:46;2.25;;;1.10;;
24650;SDS011;12783;48.824;8.662;2023-08-01T14:49:13;5.75;;;1.10;;
24650;SDS011;12783;48.824;8.662;2023-08-01T14:51:39;5.28;;;1.40;;
24650;SDS011;12783;48.824;8.662;2023-08-01T14:54:08;3.20;;;1.20;;
24650;SDS011;12783;48.824;8.662;2023-08-01T14:56:35;2.63;;;1.27;;
24650;SDS011;12783;48.824;8.662;2023-08-01T14:59:02;2.83;;;1.35;;
24650;SDS011;12783;48.824;8.662;2023-08-01T15:01:29;4.32;;;1.30;;